Time;durP1;ratioP1;P1;durP2;ratioP2;P2;SDS_P1;SDS_P2;PMS_P1;PMS_P2;Temp;Humidity;BMP_temperature;BMP_pressure;BME280_temperature;BME280_humidity;BME280_pressure;Samples;Min_cycle;Max_cycle;Signal;HPM_P1;HPM_P2
2023/11/26 00:01:04;;;;;;;21.88;12.75;;;;;;;;;;5090201;28;20085;-63
2023/11/26 00:03:31;;;;;;;18.55;12.30;;;;;;;;;;5093969;28;20023;-57
2023/11/26 00:05:58;;;;;;;16.15;11.13;;;;;;;;;;5088361;28;20031;-52
2023/11/26 00:08:25;;;;;;;15.40;9.90;;;;;;;;;;5101781;28;20104;-51
2023/11/26 00:10:52;;;;;;;12.93;9.63;;;;;;;;;;5088026;28;20193;-52
2023/11/26 00:13:23;;;;;;;15.85;9.35;;;;;;;;;;5097722;28;20028;-56
2023/11/26 00:15:50;;;;;;;12.82;8.48;;;;;;;;;;5095403;28;20036;-57
2023/11/26 00:18:16;;;;;;;10.82;8.30;;;;;;;;;;5097258;28;20016;-50
2023/11/26 00:20:44;;;;;;;11.45;8.48;;;;;;;;;;5096901;28;20027;-58
2023/11/26 00:23:11;;;;;;;15.18;8.85;;;;;;;;;;5097066;28;20040;-52
2023/11/26 00:25:39;;;;;;;12.13;8.43;;;;;;;;;;5085414;28;20058;-62
2023/11/26 00:28:06;;;;;;;11.38;7.93;;;;;;;;;;5099987;28;20019;-54
2023/11/26 00:30:32;;;;;;;14.57;7.95;;;;;;;;;;5092909;28;20032;-48
2023/11/26 00:32:59;;;;;;;14.13;7.93;;;;;;;;;;5105154;28;20083;-54
2023/11/26 00:35:25;;;;;;;9.35;7.78;;;;;;;;;;5086836;28;20422;-59
2023/11/26 00:37:52;;;;;;;11.30;8.20;;;;;;;;;;5094855;28;20028;-55
2023/11/26 00:40:24;;;;;;;11.52;7.78;;;;;;;;;;5084047;28;20035;-47
2023/11/26 00:42:52;;;;;;;13.07;7.90;;;;;;;;;;5118584;28;20031;-55
2023/11/26 00:45:19;;;;;;;16.63;8.20;;;;;;;;;;5085842;28;20086;-57
2023/11/26 00:47:48;;;;;;;12.60;7.47;;;;;;;;;;5099000;28;20095;-54
2023/11/26 00:50:17;;;;;;;10.00;7.10;;;;;;;;;;5095759;28;20024;-56
2023/11/26 00:52:45;;;;;;;13.75;8.40;;;;;;;;;;5095541;28;20031;-57
2023/11/26 00:55:13;;;;;;;10.32;7.88;;;;;;;;;;5104749;28;20073;-57
2023/11/26 00:57:40;;;;;;;13.93;8.52;;;;;;;;;;5103139;28;20031;-51
2023/11/26 01:00:09;;;;;;;11.93;8.40;;;;;;;;;;5094654;28;20020;-52
2023/11/26 01:02:36;;;;;;;12.30;8.73;;;;;;;;;;5083449;28;20020;-53
2023/11/26 01:05:03;;;;;;;9.77;7.97;;;;;;;;;;5084016;28;20031;-50
2023/11/26 01:07:30;;;;;;;13.95;8.70;;;;;;;;;;5084349;28;20235;-50
2023/11/26 01:09:58;;;;;;;12.68;8.80;;;;;;;;;;5084312;28;20078;-49
2023/11/26 01:12:25;;;;;;;14.18;8.85;;;;;;;;;;5083975;28;20036;-51
2023/11/26 01:14:52;;;;;;;13.10;8.30;;;;;;;;;;5084466;28;20022;-53
2023/11/26 01:17:18;;;;;;;9.55;8.40;;;;;;;;;;5083224;28;20341;-49
2023/11/26 01:19:46;;;;;;;13.40;8.20;;;;;;;;;;5082237;28;20024;-48
2023/11/26 01:22:13;;;;;;;10.90;7.57;;;;;;;;;;5082294;28;20040;-48
2023/11/26 01:24:39;;;;;;;7.65;6.82;;;;;;;;;;5082245;28;20078;-53
2023/11/26 01:27:06;;;;;;;10.02;7.78;;;;;;;;;;5082087;28;20032;-56
2023/11/26 01:29:33;;;;;;;9.10;7.55;;;;;;;;;;5082503;28;20212;-49
2023/11/26 01:32:00;;;;;;;9.82;7.80;;;;;;;;;;5082876;28;20088;-51
2023/11/26 01:34:27;;;;;;;9.50;6.97;;;;;;;;;;5083899;28;20024;-53
2023/11/26 01:36:53;;;;;;;11.55;7.32;;;;;;;;;;5084105;28;20102;-50
2023/11/26 01:39:20;;;;;;;11.48;7.07;;;;;;;;;;5084104;28;20040;-48
2023/11/26 01:41:47;;;;;;;9.70;7.63;;;;;;;;;;5084348;28;20100;-49
2023/11/26 01:44:13;;;;;;;13.15;7.95;;;;;;;;;;5084221;28;20048;-49
2023/11/26 01:46:41;;;;;;;12.48;7.43;;;;;;;;;;5084385;28;20319;-53
2023/11/26 01:49:08;;;;;;;8.68;7.25;;;;;;;;;;5083943;28;20032;-49
2023/11/26 01:51:35;;;;;;;10.18;7.50;;;;;;;;;;5086309;28;20028;-50
2023/11/26 01:54:01;;;;;;;14.15;7.00;;;;;;;;;;5088042;28;20027;-50
2023/11/26 01:56:29;;;;;;;14.38;7.50;;;;;;;;;;5088199;28;20016;-50
2023/11/26 01:58:56;;;;;;;15.43;7.13;;;;;;;;;;5087996;28;20035;-54
2023/11/26 02:01:23;;;;;;;9.52;7.35;;;;;;;;;;5088339;28;20020;-52
2023/11/26 02:03:50;;;;;;;8.32;6.78;;;;;;;;;;5087922;28;20032;-51
2023/11/26 02:06:17;;;;;;;12.75;7.07;;;;;;;;;;5088328;28;20192;-54
2023/11/26 02:08:45;;;;;;;9.82;7.15;;;;;;;;;;5087879;28;20036;-49
2023/11/26 02:11:12;;;;;;;11.45;7.18;;;;;;;;;;5088026;28;20036;-54
2023/11/26 02:13:45;;;;;;;12.43;7.78;;;;;;;;;;5087940;28;20028;-50
2023/11/26 02:16:12;;;;;;;9.90;8.02;;;;;;;;;;5087863;28;20039;-55
2023/11/26 02:18:39;;;;;;;12.32;8.35;;;;;;;;;;5087728;28;20025;-49
2023/11/26 02:21:09;;;;;;;12.20;8.63;;;;;;;;;;5087940;28;20021;-51
2023/11/26 02:23:38;;;;;;;15.18;9.40;;;;;;;;;;5087429;28;20036;-47
2023/11/26 02:26:11;;;;;;;12.95;9.23;;;;;;;;;;5087630;28;20247;-50
2023/11/26 02:28:48;;;;;;;11.40;8.95;;;;;;;;;;5087484;28;20035;-50
2023/11/26 02:31:15;;;;;;;10.35;8.50;;;;;;;;;;5087772;28;20032;-48
2023/11/26 02:33:42;;;;;;;10.77;8.32;;;;;;;;;;5087333;28;20020;-51
2023/11/26 02:36:09;;;;;;;12.88;8.02;;;;;;;;;;5087197;28;20333;-49
2023/11/26 02:38:35;;;;;;;9.63;8.00;;;;;;;;;;5087098;28;20021;-51
2023/11/26 02:41:02;;;;;;;11.38;8.30;;;;;;;;;;5088040;28;20027;-47
2023/11/26 02:43:29;;;;;;;14.05;8.00;;;;;;;;;;5087645;28;20329;-49
2023/11/26 02:45:58;;;;;;;10.25;7.30;;;;;;;;;;5086520;28;20048;-49
2023/11/26 02:48:24;;;;;;;11.48;7.68;;;;;;;;;;5089522;28;20077;-47
2023/11/26 02:50:54;;;;;;;9.90;7.15;;;;;;;;;;5095187;28;20032;-52
2023/11/26 02:53:21;;;;;;;9.88;7.50;;;;;;;;;;5085418;28;20190;-49
2023/11/26 02:55:48;;;;;;;10.13;7.55;;;;;;;;;;5085886;28;20023;-47
2023/11/26 02:58:16;;;;;;;10.35;7.03;;;;;;;;;;5086353;28;20040;-48
2023/11/26 03:00:43;;;;;;;10.75;7.50;;;;;;;;;;5098405;28;20023;-49
2023/11/26 03:03:11;;;;;;;10.13;7.22;;;;;;;;;;5086533;28;20052;-49
2023/11/26 03:05:39;;;;;;;9.40;7.25;;;;;;;;;;5085645;28;20025;-52
2023/11/26 03:08:38;;;;;;;10.60;7.85;;;;;;;;;;5085242;28;20035;-49
2023/11/26 03:13:43;;;;;;;12.20;7.22;;;;;;;;;;5089565;28;20081;-50
2023/11/26 03:16:12;;;;;;;10.40;7.53;;;;;;;;;;5098617;28;20212;-53
2023/11/26 03:18:39;;;;;;;9.77;7.13;;;;;;;;;;5091019;28;20033;-52
2023/11/26 03:21:07;;;;;;;9.38;6.95;;;;;;;;;;5085059;28;20020;-51
2023/11/26 03:23:33;;;;;;;10.32;7.00;;;;;;;;;;5093139;28;20028;-49
2023/11/26 03:26:00;;;;;;;10.20;7.05;;;;;;;;;;5088054;28;20173;-51
2023/11/26 03:28:27;;;;;;;9.68;6.55;;;;;;;;;;5094462;28;20028;-52
2023/11/26 03:30:56;;;;;;;9.82;7.10;;;;;;;;;;5085168;28;20029;-51
2023/11/26 03:33:23;;;;;;;11.60;6.80;;;;;;;;;;5084772;28;20101;-51
2023/11/26 03:35:51;;;;;;;9.43;6.55;;;;;;;;;;5103246;28;20292;-52
2023/11/26 03:38:18;;;;;;;15.00;7.20;;;;;;;;;;5105091;28;20028;-51
2023/11/26 03:40:45;;;;;;;8.23;7.35;;;;;;;;;;5098979;28;20024;-56
2023/11/26 03:43:12;;;;;;;10.15;7.30;;;;;;;;;;5093644;28;20024;-50
2023/11/26 03:45:40;;;;;;;7.63;6.80;;;;;;;;;;5013834;28;2041675;-54
2023/11/26 04:01:22;;;;;;;7.47;6.57;;;;;;;;;;5091112;27;20466;-49
2023/11/26 04:03:49;;;;;;;8.25;6.70;;;;;;;;;;5085789;28;20032;-51
2023/11/26 04:06:15;;;;;;;10.10;7.15;;;;;;;;;;5080874;28;20078;-52
2023/11/26 04:08:45;;;;;;;13.48;6.80;;;;;;;;;;5081010;28;20029;-52
2023/11/26 04:11:13;;;;;;;9.75;7.25;;;;;;;;;;5080855;28;20025;-53
2023/11/26 04:13:40;;;;;;;11.13;7.45;;;;;;;;;;5080818;28;20029;-53
2023/11/26 04:16:07;;;;;;;10.00;7.07;;;;;;;;;;5080791;28;20044;-52
2023/11/26 04:18:34;;;;;;;12.05;7.10;;;;;;;;;;5080852;28;20098;-50
2023/11/26 04:21:01;;;;;;;10.60;6.82;;;;;;;;;;5080642;28;20217;-54
2023/11/26 04:23:28;;;;;;;9.57;7.15;;;;;;;;;;5080720;28;20115;-52
2023/11/26 04:25:54;;;;;;;8.70;6.88;;;;;;;;;;5080616;28;20033;-51
2023/11/26 04:28:21;;;;;;;7.65;6.90;;;;;;;;;;5080206;28;20032;-53
2023/11/26 04:30:48;;;;;;;10.32;7.30;;;;;;;;;;5080681;28;20078;-52
2023/11/26 04:33:18;;;;;;;11.70;7.22;;;;;;;;;;5080479;28;20343;-54
2023/11/26 04:35:45;;;;;;;7.80;7.00;;;;;;;;;;5079715;28;20111;-56
2023/11/26 04:38:12;;;;;;;10.20;7.25;;;;;;;;;;5079766;28;20023;-57
2023/11/26 04:40:38;;;;;;;8.55;6.72;;;;;;;;;;5080103;28;20025;-61
2023/11/26 04:43:06;;;;;;;8.80;6.80;;;;;;;;;;5078335;28;20019;-54
2023/11/26 04:45:32;;;;;;;7.78;6.82;;;;;;;;;;5078504;28;20067;-54
2023/11/26 04:47:59;;;;;;;8.05;6.63;;;;;;;;;;5078347;28;20224;-53
2023/11/26 04:50:26;;;;;;;8.52;6.85;;;;;;;;;;5078081;28;20052;-56
2023/11/26 04:52:52;;;;;;;9.43;6.30;;;;;;;;;;5078392;28;20021;-54
2023/11/26 04:55:19;;;;;;;8.88;6.93;;;;;;;;;;5078705;28;20024;-56
2023/11/26 04:57:49;;;;;;;9.18;6.80;;;;;;;;;;5079470;28;20209;-53
2023/11/26 05:00:21;;;;;;;7.82;6.60;;;;;;;;;;5075471;28;20053;-54
2023/11/26 05:02:47;;;;;;;8.68;6.63;;;;;;;;;;5066665;28;20021;-60
2023/11/26 05:05:14;;;;;;;9.85;6.97;;;;;;;;;;5066929;28;20025;-55
2023/11/26 05:07:41;;;;;;;10.23;7.00;;;;;;;;;;5066702;28;20087;-53
2023/11/26 05:10:08;;;;;;;6.55;5.65;;;;;;;;;;5066861;28;20036;-53
2023/11/26 05:12:35;;;;;;;9.65;5.85;;;;;;;;;;5066350;28;20080;-53
2023/11/26 05:15:04;;;;;;;8.07;6.13;;;;;;;;;;5066449;28;20050;-54
2023/11/26 05:17:30;;;;;;;7.28;6.22;;;;;;;;;;5066451;28;20032;-52
2023/11/26 05:19:57;;;;;;;9.80;6.18;;;;;;;;;;5066604;28;20035;-53
2023/11/26 05:22:24;;;;;;;9.82;5.95;;;;;;;;;;5066353;28;20320;-53
2023/11/26 05:24:50;;;;;;;7.05;5.85;;;;;;;;;;5066652;28;20037;-52
2023/11/26 05:27:18;;;;;;;8.23;6.00;;;;;;;;;;5066054;28;20047;-52
2023/11/26 05:29:45;;;;;;;7.97;6.40;;;;;;;;;;5066497;28;20021;-52
2023/11/26 05:32:12;;;;;;;6.72;5.85;;;;;;;;;;5066141;28;20051;-54
2023/11/26 05:34:38;;;;;;;7.97;5.82;;;;;;;;;;5066268;28;20093;-52
2023/11/26 05:37:05;;;;;;;7.05;6.13;;;;;;;;;;5066110;28;20067;-52
2023/11/26 05:39:32;;;;;;;8.40;5.85;;;;;;;;;;5066320;28;20032;-55
2023/11/26 05:41:58;;;;;;;7.93;6.03;;;;;;;;;;5065838;28;20084;-53
2023/11/26 05:44:25;;;;;;;7.55;5.80;;;;;;;;;;5066302;28;20025;-52
2023/11/26 05:46:52;;;;;;;6.95;5.88;;;;;;;;;;5065990;28;20035;-55
2023/11/26 05:49:18;;;;;;;7.15;6.43;;;;;;;;;;5065787;28;20102;-52
2023/11/26 05:51:45;;;;;;;8.13;5.97;;;;;;;;;;5065996;28;20080;-52
2023/11/26 05:54:11;;;;;;;6.63;5.75;;;;;;;;;;5065964;28;20025;-52
2023/11/26 05:56:43;;;;;;;10.23;6.05;;;;;;;;;;5065540;28;20036;-55
2023/11/26 05:59:10;;;;;;;8.43;5.93;;;;;;;;;;5065375;28;20033;-52
2023/11/26 06:01:37;;;;;;;6.85;6.15;;;;;;;;;;5065573;28;20028;-53
2023/11/26 06:04:04;;;;;;;10.20;6.32;;;;;;;;;;5065738;28;20300;-52
2023/11/26 06:06:31;;;;;;;9.75;6.88;;;;;;;;;;5065771;28;20308;-54
2023/11/26 06:08:57;;;;;;;9.93;6.30;;;;;;;;;;5065557;28;20071;-52
2023/11/26 06:11:24;;;;;;;7.70;5.85;;;;;;;;;;5064901;28;20312;-53
2023/11/26 06:13:51;;;;;;;7.85;5.80;;;;;;;;;;5064943;28;20029;-52
2023/11/26 06:16:17;;;;;;;9.60;5.70;;;;;;;;;;5065249;28;20098;-53
2023/11/26 06:18:44;;;;;;;8.00;6.13;;;;;;;;;;5065222;28;20075;-52
2023/11/26 06:21:14;;;;;;;5.85;5.25;;;;;;;;;;5065223;28;20020;-52
2023/11/26 06:23:41;;;;;;;13.30;5.97;;;;;;;;;;5065522;28;20040;-53
2023/11/26 06:26:07;;;;;;;7.75;5.75;;;;;;;;;;5064940;28;20044;-52
2023/11/26 06:28:34;;;;;;;8.88;5.50;;;;;;;;;;5065222;28;20032;-53
2023/11/26 06:31:01;;;;;;;8.93;5.65;;;;;;;;;;5065066;28;20028;-53
2023/11/26 06:33:27;;;;;;;6.13;4.97;;;;;;;;;;5064894;28;20021;-52
2023/11/26 06:35:54;;;;;;;7.43;5.20;;;;;;;;;;5065024;28;20021;-54
2023/11/26 06:38:21;;;;;;;7.60;5.82;;;;;;;;;;5065067;28;20052;-54
2023/11/26 06:40:47;;;;;;;7.03;5.30;;;;;;;;;;5064646;28;20182;-54
2023/11/26 06:43:14;;;;;;;9.20;5.05;;;;;;;;;;5064801;28;20036;-55
2023/11/26 06:45:41;;;;;;;6.10;5.05;;;;;;;;;;5064792;28;20051;-53
2023/11/26 06:48:08;;;;;;;7.38;5.38;;;;;;;;;;5064491;28;20017;-56
2023/11/26 06:50:38;;;;;;;5.45;4.93;;;;;;;;;;5064745;28;20044;-52
2023/11/26 06:53:05;;;;;;;6.53;4.70;;;;;;;;;;5064682;28;20028;-56
2023/11/26 06:55:31;;;;;;;9.63;5.00;;;;;;;;;;5064363;28;20066;-56
2023/11/26 06:57:58;;;;;;;7.85;5.20;;;;;;;;;;5064463;28;20031;-55
2023/11/26 07:00:26;;;;;;;5.53;4.93;;;;;;;;;;5064404;28;20048;-53
2023/11/26 07:02:52;;;;;;;6.68;5.13;;;;;;;;;;5064265;28;20024;-53
2023/11/26 07:05:19;;;;;;;7.50;5.05;;;;;;;;;;5064845;28;20024;-51
2023/11/26 07:07:46;;;;;;;5.93;4.90;;;;;;;;;;5064823;28;20255;-52
2023/11/26 07:10:12;;;;;;;8.00;4.40;;;;;;;;;;5064676;28;20127;-54
2023/11/26 07:12:39;;;;;;;6.28;4.65;;;;;;;;;;5064232;28;20048;-52
2023/11/26 07:15:06;;;;;;;7.25;4.90;;;;;;;;;;5064703;28;20320;-53
2023/11/26 07:17:33;;;;;;;10.52;4.95;;;;;;;;;;5064160;28;20040;-52
2023/11/26 07:19:59;;;;;;;8.05;4.60;;;;;;;;;;5064429;28;20036;-52
2023/11/26 07:22:26;;;;;;;8.50;4.90;;;;;;;;;;5064165;28;20028;-52
2023/11/26 07:24:53;;;;;;;10.57;4.68;;;;;;;;;;5064216;28;20296;-53
2023/11/26 07:27:20;;;;;;;8.95;4.47;;;;;;;;;;5063887;28;20239;-54
2023/11/26 07:29:47;;;;;;;11.43;5.05;;;;;;;;;;5064264;28;20338;-52
2023/11/26 07:32:14;;;;;;;8.50;4.90;;;;;;;;;;5062826;28;20028;-53
2023/11/26 07:34:42;;;;;;;6.85;4.70;;;;;;;;;;5064224;28;20025;-52
2023/11/26 07:37:09;;;;;;;9.95;5.20;;;;;;;;;;5063912;28;20021;-53
2023/11/26 07:39:36;;;;;;;7.30;4.15;;;;;;;;;;5064262;28;20044;-53
2023/11/26 07:42:04;;;;;;;5.65;4.30;;;;;;;;;;5063724;28;20212;-51
2023/11/26 07:44:31;;;;;;;5.80;4.40;;;;;;;;;;5063842;28;20029;-51
2023/11/26 07:47:01;;;;;;;10.05;4.80;;;;;;;;;;5063834;28;20035;-52
2023/11/26 07:49:31;;;;;;;9.27;4.88;;;;;;;;;;5063913;28;20300;-51
2023/11/26 07:51:57;;;;;;;7.90;4.30;;;;;;;;;;5063731;28;20067;-52
2023/11/26 07:54:24;;;;;;;7.65;5.03;;;;;;;;;;5063992;28;20027;-50
2023/11/26 07:56:51;;;;;;;8.57;5.00;;;;;;;;;;5063629;28;20017;-51
2023/11/26 07:59:17;;;;;;;7.85;5.18;;;;;;;;;;5063850;28;20336;-51
2023/11/26 08:01:49;;;;;;;7.05;5.13;;;;;;;;;;5063697;28;20035;-51
2023/11/26 08:04:17;;;;;;;6.32;4.53;;;;;;;;;;5063941;28;20333;-54
2023/11/26 08:06:46;;;;;;;6.60;4.50;;;;;;;;;;5063700;28;20202;-51
2023/11/26 08:09:14;;;;;;;8.43;5.00;;;;;;;;;;5063546;28;20304;-52
2023/11/26 08:11:46;;;;;;;8.05;4.72;;;;;;;;;;5063794;28;20031;-53
2023/11/26 08:14:13;;;;;;;6.35;4.20;;;;;;;;;;5063747;28;20074;-53
2023/11/26 08:16:43;;;;;;;6.20;4.75;;;;;;;;;;5063347;28;20021;-51
2023/11/26 08:19:16;;;;;;;8.02;5.00;;;;;;;;;;5063744;28;20196;-53
2023/11/26 08:21:43;;;;;;;8.38;4.78;;;;;;;;;;5063756;28;20261;-51
2023/11/26 08:24:18;;;;;;;7.10;4.80;;;;;;;;;;5063496;28;20054;-50
2023/11/26 08:26:46;;;;;;;7.25;4.28;;;;;;;;;;5062400;28;20100;-51
2023/11/26 08:29:16;;;;;;;7.25;4.65;;;;;;;;;;5063094;28;20079;-54
2023/11/26 08:31:48;;;;;;;6.68;4.57;;;;;;;;;;5063281;28;20092;-52
2023/11/26 08:34:16;;;;;;;5.60;4.15;;;;;;;;;;5063624;28;20201;-52
2023/11/26 08:36:43;;;;;;;5.22;4.55;;;;;;;;;;5065973;28;20025;-52
2023/11/26 08:39:25;;;;;;;10.70;4.93;;;;;;;;;;5067318;28;20033;-52
2023/11/26 08:41:56;;;;;;;9.35;4.80;;;;;;;;;;5066957;28;20020;-52
2023/11/26 08:44:23;;;;;;;6.68;4.80;;;;;;;;;;5067237;28;20044;-54
2023/11/26 08:46:49;;;;;;;6.25;4.47;;;;;;;;;;5067261;28;20048;-54
2023/11/26 08:49:22;;;;;;;15.27;4.70;;;;;;;;;;5066905;28;20045;-56
2023/11/26 08:51:48;;;;;;;;;;;;;;;;;;5067308;28;20027;-56
2023/11/26 08:54:14;;;;;;;9.15;4.60;;;;;;;;;;5067047;28;19915;-55
2023/11/26 08:56:42;;;;;;;6.40;4.88;;;;;;;;;;5066712;28;20051;-53
2023/11/26 08:59:09;;;;;;;5.45;4.30;;;;;;;;;;5066716;28;20024;-55
2023/11/26 09:01:37;;;;;;;7.45;4.72;;;;;;;;;;5066785;28;20021;-52
2023/11/26 09:04:04;;;;;;;6.85;4.30;;;;;;;;;;5066708;28;20040;-54
2023/11/26 09:06:31;;;;;;;6.82;4.50;;;;;;;;;;5066896;28;20317;-52
2023/11/26 09:08:57;;;;;;;6.32;4.88;;;;;;;;;;5066640;28;20033;-56
2023/11/26 09:11:26;;;;;;;6.18;4.32;;;;;;;;;;5066455;28;20017;-52
2023/11/26 09:13:53;;;;;;;7.55;4.38;;;;;;;;;;5065949;28;20025;-43
2023/11/26 09:16:20;;;;;;;7.28;4.97;;;;;;;;;;5066721;28;20025;-49
2023/11/26 09:18:47;;;;;;;6.25;4.80;;;;;;;;;;5066333;28;20286;-45
2023/11/26 09:21:13;;;;;;;8.75;5.13;;;;;;;;;;5066411;28;20212;-48
2023/11/26 09:23:43;;;;;;;6.75;5.15;;;;;;;;;;5066430;28;20170;-46
2023/11/26 09:26:11;;;;;;;9.88;4.88;;;;;;;;;;5066177;28;20028;-49
2023/11/26 09:28:38;;;;;;;8.18;5.05;;;;;;;;;;5066236;28;20107;-46
2023/11/26 09:31:06;;;;;;;6.22;4.55;;;;;;;;;;5066175;28;20182;-42
2023/11/26 09:33:32;;;;;;;5.60;5.00;;;;;;;;;;5066058;28;20021;-44
2023/11/26 09:35:59;;;;;;;8.63;4.90;;;;;;;;;;5066250;28;20025;-51
2023/11/26 09:38:26;;;;;;;8.60;5.38;;;;;;;;;;5066104;28;20022;-41
2023/11/26 09:40:52;;;;;;;8.20;5.18;;;;;;;;;;5065936;28;20090;-42
2023/11/26 09:43:19;;;;;;;7.15;5.00;;;;;;;;;;5065965;28;20031;-43
2023/11/26 09:45:46;;;;;;;6.78;5.40;;;;;;;;;;5065903;28;20048;-45
2023/11/26 09:48:13;;;;;;;6.20;4.97;;;;;;;;;;5065521;28;20061;-43
2023/11/26 09:50:39;;;;;;;9.25;5.30;;;;;;;;;;5065900;28;20035;-41
2023/11/26 09:53:08;;;;;;;7.38;5.65;;;;;;;;;;5065702;28;20013;-50
2023/11/26 09:55:41;;;;;;;9.20;5.43;;;;;;;;;;5065618;28;20217;-42
2023/11/26 09:58:08;;;;;;;10.88;5.95;;;;;;;;;;5065611;28;20025;-42
2023/11/26 10:00:34;;;;;;;10.48;5.68;;;;;;;;;;5053972;28;20091;-41
2023/11/26 10:03:02;;;;;;;12.18;5.65;;;;;;;;;;5052915;28;20321;-43
2023/11/26 10:05:29;;;;;;;9.73;5.65;;;;;;;;;;5045512;28;20092;-42
2023/11/26 10:07:56;;;;;;;11.05;5.28;;;;;;;;;;5045457;28;20017;-47
2023/11/26 10:10:26;;;;;;;7.00;5.40;;;;;;;;;;5045771;28;20032;-42
2023/11/26 10:12:54;;;;;;;8.75;5.65;;;;;;;;;;5045347;28;20032;-45
2023/11/26 10:15:22;;;;;;;9.35;5.70;;;;;;;;;;5045808;28;20092;-43
2023/11/26 10:18:07;;;;;;;10.55;5.70;;;;;;;;;;5045197;28;20092;-43
2023/11/26 10:20:34;;;;;;;8.63;5.80;;;;;;;;;;5045183;28;20037;-46
2023/11/26 10:23:01;;;;;;;7.05;5.82;;;;;;;;;;5044888;28;20013;-44
2023/11/26 10:25:28;;;;;;;7.43;5.93;;;;;;;;;;5045131;28;20097;-48
2023/11/26 10:28:02;;;;;;;9.07;5.80;;;;;;;;;;5045432;28;20113;-44
2023/11/26 10:30:29;;;;;;;9.13;6.40;;;;;;;;;;5044828;28;20191;-46
2023/11/26 10:32:56;;;;;;;10.35;5.97;;;;;;;;;;5044954;28;20089;-49
2023/11/26 10:35:23;;;;;;;11.02;7.03;;;;;;;;;;5045109;28;20021;-48
2023/11/26 10:37:50;;;;;;;12.82;7.65;;;;;;;;;;5044835;28;20021;-46
2023/11/26 10:40:18;;;;;;;12.07;7.72;;;;;;;;;;5045305;28;20368;-44
2023/11/26 10:42:45;;;;;;;13.27;7.05;;;;;;;;;;5044831;28;20033;-42
2023/11/26 10:45:12;;;;;;;11.75;6.78;;;;;;;;;;5045149;28;20037;-43
2023/11/26 10:47:40;;;;;;;7.95;6.53;;;;;;;;;;5044800;28;20386;-47
2023/11/26 10:50:09;;;;;;;8.60;5.80;;;;;;;;;;5044935;28;20035;-46
2023/11/26 10:52:56;;;;;;;8.00;6.03;;;;;;;;;;5044523;28;20085;-42
2023/11/26 10:55:25;;;;;;;8.65;5.60;;;;;;;;;;5044420;28;20100;-44
2023/11/26 10:57:55;;;;;;;9.93;5.82;;;;;;;;;;5043908;28;20017;-44
2023/11/26 11:00:22;;;;;;;7.85;5.95;;;;;;;;;;5045817;28;20245;-48
2023/11/26 11:02:49;;;;;;;8.90;6.13;;;;;;;;;;5084056;28;20024;-44
2023/11/26 11:05:16;;;;;;;9.75;5.80;;;;;;;;;;5084596;28;20070;-46
2023/11/26 11:07:45;;;;;;;5.72;5.03;;;;;;;;;;5084254;28;20025;-43
2023/11/26 11:10:31;;;;;;;7.63;5.00;;;;;;;;;;5074561;28;20036;-45
2023/11/26 11:13:16;;;;;;;7.00;4.80;;;;;;;;;;5064213;28;20056;-44
2023/11/26 11:15:43;;;;;;;7.82;5.53;;;;;;;;;;5064108;28;20040;-41
2023/11/26 11:18:30;;;;;;;12.68;6.10;;;;;;;;;;5064074;28;20025;-41
2023/11/26 11:21:01;;;;;;;12.88;6.28;;;;;;;;;;5069730;28;20043;-44
2023/11/26 11:23:32;;;;;;;7.95;6.05;;;;;;;;;;5084224;28;20020;-43
2023/11/26 11:26:00;;;;;;;11.85;6.03;;;;;;;;;;5084076;28;20292;-50
2023/11/26 11:28:40;;;;;;;10.27;6.07;;;;;;;;;;5084047;28;20032;-49
2023/11/26 11:31:09;;;;;;;10.52;6.13;;;;;;;;;;5083381;28;20043;-44
2023/11/26 11:33:36;;;;;;;10.85;6.13;;;;;;;;;;5083885;28;20036;-45
2023/11/26 11:36:05;;;;;;;7.95;5.63;;;;;;;;;;5083976;28;20013;-48
2023/11/26 11:38:53;;;;;;;10.13;6.13;;;;;;;;;;5083946;28;20028;-43
2023/11/26 11:41:20;;;;;;;8.38;6.13;;;;;;;;;;5083712;28;20038;-47
2023/11/26 11:44:06;;;;;;;7.72;5.40;;;;;;;;;;5083743;28;20024;-42
2023/11/26 11:46:33;;;;;;;8.90;5.10;;;;;;;;;;5083940;28;20224;-47
2023/11/26 11:49:00;;;;;;;7.13;5.00;;;;;;;;;;5083829;28;20036;-46
2023/11/26 11:51:37;;;;;;;7.88;4.85;;;;;;;;;;5083677;28;20028;-49
2023/11/26 11:54:04;;;;;;;5.82;4.68;;;;;;;;;;5083860;28;20043;-46
2023/11/26 11:56:31;;;;;;;5.80;4.50;;;;;;;;;;5083752;28;20043;-45
2023/11/26 11:58:58;;;;;;;6.93;4.78;;;;;;;;;;5083154;28;20032;-47
2023/11/26 12:01:25;;;;;;;6.55;4.60;;;;;;;;;;5063278;28;20033;-51
2023/11/26 12:03:52;;;;;;;6.15;4.68;;;;;;;;;;5043403;28;20416;-50
2023/11/26 12:06:21;;;;;;;10.07;4.15;;;;;;;;;;5043420;28;20080;-43
2023/11/26 12:08:56;;;;;;;5.78;4.60;;;;;;;;;;5043368;28;20026;-43
2023/11/26 12:11:24;;;;;;;5.70;4.53;;;;;;;;;;5045734;28;20021;-42
2023/11/26 12:13:51;;;;;;;8.90;4.60;;;;;;;;;;5047293;28;20030;-42
2023/11/26 12:16:19;;;;;;;5.05;4.10;;;;;;;;;;5047539;28;20029;-43
2023/11/26 12:18:48;;;;;;;7.75;4.72;;;;;;;;;;5047321;28;20025;-43
2023/11/26 12:21:14;;;;;;;8.40;4.20;;;;;;;;;;5047227;28;20032;-43
2023/11/26 12:23:41;;;;;;;8.10;4.40;;;;;;;;;;5047333;28;20423;-42
2023/11/26 12:26:08;;;;;;;9.07;4.38;;;;;;;;;;5047270;28;20025;-48
2023/11/26 12:28:42;;;;;;;7.72;5.07;;;;;;;;;;5047064;28;20048;-42
2023/11/26 12:31:09;;;;;;;8.38;4.38;;;;;;;;;;5042575;28;20018;-46
2023/11/26 12:33:36;;;;;;;6.70;4.60;;;;;;;;;;5036121;28;20018;-43
2023/11/26 12:36:06;;;;;;;9.18;4.50;;;;;;;;;;5027441;28;20033;-45
2023/11/26 12:38:32;;;;;;;8.13;4.55;;;;;;;;;;5027505;28;20297;-44
2023/11/26 12:41:00;;;;;;;7.45;5.30;;;;;;;;;;5027099;28;20071;-42
2023/11/26 12:43:27;;;;;;;8.20;5.43;;;;;;;;;;5027190;28;20096;-41
2023/11/26 12:46:21;;;;;;;7.85;5.13;;;;;;;;;;5027110;28;20060;-43
2023/11/26 12:48:49;;;;;;;7.25;5.32;;;;;;;;;;5027157;28;20026;-42
2023/11/26 12:51:17;;;;;;;8.93;5.28;;;;;;;;;;5026723;28;20045;-44
2023/11/26 12:53:44;;;;;;;10.05;5.35;;;;;;;;;;5027236;28;20309;-41
2023/11/26 12:56:10;;;;;;;11.45;5.40;;;;;;;;;;5027183;28;20097;-45
2023/11/26 12:58:37;;;;;;;8.88;6.00;;;;;;;;;;5030231;28;20061;-49
2023/11/26 13:01:04;;;;;;;8.90;5.72;;;;;;;;;;5038936;28;20571;-43
2023/11/26 13:03:31;;;;;;;7.47;5.22;;;;;;;;;;5027173;28;20313;-43
2023/11/26 13:06:09;;;;;;;8.18;5.43;;;;;;;;;;5026831;28;20032;-45
2023/11/26 13:08:35;;;;;;;26.30;7.55;;;;;;;;;;5026721;28;20096;-43
2023/11/26 13:11:03;;;;;;;33.35;8.45;;;;;;;;;;5026505;28;20034;-42
2023/11/26 13:13:31;;;;;;;37.72;8.48;;;;;;;;;;5039675;28;20071;-42
2023/11/26 13:15:58;;;;;;;44.90;8.07;;;;;;;;;;5057098;28;20025;-52
2023/11/26 13:18:26;;;;;;;27.70;7.40;;;;;;;;;;5060631;28;20212;-51
2023/11/26 13:21:06;;;;;;;38.00;8.10;;;;;;;;;;5057555;28;20273;-43
2023/11/26 13:23:33;;;;;;;36.67;9.00;;;;;;;;;;5041716;28;20251;-42
2023/11/26 13:26:00;;;;;;;66.05;11.05;;;;;;;;;;5046067;28;20029;-43
2023/11/26 13:28:31;;;;;;;51.38;11.10;;;;;;;;;;5055293;28;20025;-46
2023/11/26 13:31:00;;;;;;;58.88;12.40;;;;;;;;;;5041629;28;20089;-42
2023/11/26 13:33:27;;;;;;;55.92;13.02;;;;;;;;;;5050172;28;20033;-51
2023/11/26 13:35:55;;;;;;;53.33;13.77;;;;;;;;;;5059425;28;20028;-43
2023/11/26 13:38:25;;;;;;;49.10;14.20;;;;;;;;;;5059892;28;20287;-44
2023/11/26 13:40:51;;;;;;;62.83;14.60;;;;;;;;;;5065888;28;20025;-44
2023/11/26 13:43:19;;;;;;;71.43;14.00;;;;;;;;;;5064203;28;20080;-47
2023/11/26 13:45:46;;;;;;;91.97;14.40;;;;;;;;;;5066212;28;20024;-46
2023/11/26 13:48:13;;;;;;;109.20;17.33;;;;;;;;;;5063421;28;20024;-51
2023/11/26 13:50:40;;;;;;;98.80;16.23;;;;;;;;;;5057736;28;20092;-44
2023/11/26 13:53:08;;;;;;;94.40;15.25;;;;;;;;;;5054054;28;20025;-49
2023/11/26 13:55:35;;;;;;;82.95;13.55;;;;;;;;;;5051357;28;20068;-45
2023/11/26 13:58:02;;;;;;;71.63;11.80;;;;;;;;;;5055152;28;20021;-42
2023/11/26 14:00:30;;;;;;;67.85;10.23;;;;;;;;;;5058562;28;20061;-47
2023/11/26 14:02:56;;;;;;;68.95;10.48;;;;;;;;;;5065424;28;20031;-46
2023/11/26 14:05:23;;;;;;;62.08;9.85;;;;;;;;;;5065629;28;20048;-43
2023/11/26 14:07:51;;;;;;;57.65;9.38;;;;;;;;;;5065619;28;20025;-49
2023/11/26 14:10:19;;;;;;;47.30;8.27;;;;;;;;;;5071982;28;20086;-43
2023/11/26 14:12:47;;;;;;;42.38;9.10;;;;;;;;;;5079314;28;20083;-40
2023/11/26 14:15:17;;;;;;;39.33;8.05;;;;;;;;;;5083741;28;20376;-40
2023/11/26 14:17:44;;;;;;;49.63;8.13;;;;;;;;;;5074666;28;20025;-42
2023/11/26 14:20:12;;;;;;;41.30;8.15;;;;;;;;;;5066762;28;20029;-49
2023/11/26 14:22:42;;;;;;;44.40;8.18;;;;;;;;;;5085274;28;20062;-48
2023/11/26 14:25:16;;;;;;;48.83;8.90;;;;;;;;;;5084983;28;20024;-47
2023/11/26 14:27:43;;;;;;;60.97;9.57;;;;;;;;;;5078902;28;20036;-40
2023/11/26 14:30:13;;;;;;;56.22;9.70;;;;;;;;;;5070194;28;20053;-45
2023/11/26 14:32:46;;;;;;;59.28;9.95;;;;;;;;;;5079173;28;20074;-44
2023/11/26 14:35:13;;;;;;;82.90;11.50;;;;;;;;;;5076254;28;20186;-41
2023/11/26 14:37:40;;;;;;;61.28;8.77;;;;;;;;;;5065567;28;20029;-46
2023/11/26 14:40:12;;;;;;;61.55;9.98;;;;;;;;;;5064718;28;20082;-42
2023/11/26 14:42:43;;;;;;;79.13;10.43;;;;;;;;;;5084656;28;20032;-50
2023/11/26 14:45:10;;;;;;;111.35;11.88;;;;;;;;;;5084297;28;20236;-43
2023/11/26 14:47:37;;;;;;;91.95;11.48;;;;;;;;;;5084417;28;20355;-46
2023/11/26 14:50:05;;;;;;;96.05;12.20;;;;;;;;;;5084151;28;20116;-42
2023/11/26 14:52:33;;;;;;;92.43;12.40;;;;;;;;;;5084355;28;20052;-49
2023/11/26 14:55:03;;;;;;;73.93;10.30;;;;;;;;;;5084702;28;20021;-43
2023/11/26 14:57:30;;;;;;;48.63;7.38;;;;;;;;;;5084401;28;20066;-45